Time;durP1;ratioP1;P1;durP2;ratioP2;P2;SDS_P1;SDS_P2;PMS_P1;PMS_P2;Temp;Humidity;BMP_temperature;BMP_pressure;BME280_temperature;BME280_humidity;BME280_pressure;Samples;Min_cycle;Max_cycle;Signal;HPM_P1;HPM_P2
2023/08/20 00:01:41;;;;;;;13.38;10.88;;;;;;;;;;5044321;28;20029;-67
2023/08/20 00:04:07;;;;;;;13.73;10.83;;;;;;;;;;5014337;28;20029;-67
2023/08/20 00:06:32;;;;;;;13.75;11.50;;;;;;;;;;5010148;28;20817;-66
2023/08/20 00:08:57;;;;;;;12.75;11.18;;;;;;;;;;5014148;28;20543;-66
2023/08/20 00:11:27;;;;;;;13.97;11.40;;;;;;;;;;5012506;28;20318;-67
2023/08/20 00:13:55;;;;;;;13.98;10.95;;;;;;;;;;5014481;28;20264;-68
2023/08/20 00:16:20;;;;;;;12.45;10.77;;;;;;;;;;5011759;28;20601;-67
2023/08/20 00:18:48;;;;;;;13.52;11.13;;;;;;;;;;5008907;28;20045;-69
2023/08/20 00:21:14;;;;;;;13.27;10.73;;;;;;;;;;5010359;28;20050;-66
2023/08/20 00:23:39;;;;;;;13.40;11.00;;;;;;;;;;5041263;28;20022;-66
2023/08/20 00:26:07;;;;;;;13.85;10.73;;;;;;;;;;5014139;28;20090;-66
2023/08/20 00:28:36;;;;;;;13.05;11.63;;;;;;;;;;5011598;28;20021;-67
2023/08/20 00:31:02;;;;;;;12.82;11.23;;;;;;;;;;5015515;28;20029;-66
2023/08/20 00:33:31;;;;;;;13.10;11.18;;;;;;;;;;5014267;28;20053;-68
2023/08/20 00:35:56;;;;;;;14.35;11.63;;;;;;;;;;5014741;28;20032;-68
2023/08/20 00:38:21;;;;;;;12.97;11.23;;;;;;;;;;5008242;28;20017;-66
2023/08/20 00:40:49;;;;;;;12.67;11.37;;;;;;;;;;5014326;28;20339;-67
2023/08/20 00:43:14;;;;;;;13.00;11.65;;;;;;;;;;5003264;28;20322;-67
2023/08/20 00:45:45;;;;;;;13.50;11.03;;;;;;;;;;5012610;28;20029;-66
2023/08/20 00:48:11;;;;;;;16.02;11.18;;;;;;;;;;5014024;28;20022;-68
2023/08/20 00:50:36;;;;;;;14.68;11.02;;;;;;;;;;5010350;28;20032;-69
2023/08/20 00:53:02;;;;;;;13.68;10.65;;;;;;;;;;5011929;28;20025;-67
2023/08/20 00:55:27;;;;;;;12.68;10.73;;;;;;;;;;5011329;28;20207;-67
2023/08/20 00:57:53;;;;;;;12.98;11.45;;;;;;;;;;5015190;28;20472;-67
2023/08/20 01:00:18;;;;;;;12.60;11.07;;;;;;;;;;5013222;28;20037;-67
2023/08/20 01:02:43;;;;;;;15.17;11.33;;;;;;;;;;5010526;28;20033;-65
2023/08/20 01:05:10;;;;;;;14.50;10.90;;;;;;;;;;5007846;28;20673;-62
2023/08/20 01:07:54;;;;;;;14.10;11.48;;;;;;;;;;5008931;28;20079;-67
2023/08/20 01:10:22;;;;;;;15.75;11.77;;;;;;;;;;5010660;28;20492;-68
2023/08/20 01:12:48;;;;;;;12.43;11.13;;;;;;;;;;5008785;28;20099;-67
2023/08/20 01:15:14;;;;;;;14.93;11.55;;;;;;;;;;5010569;28;20144;-68
2023/08/20 01:17:42;;;;;;;14.07;11.48;;;;;;;;;;5008153;28;20454;-67
2023/08/20 01:20:08;;;;;;;15.85;11.70;;;;;;;;;;5009342;28;20040;-68
2023/08/20 01:23:06;;;;;;;14.32;11.45;;;;;;;;;;5007008;28;20099;-68
2023/08/20 01:25:44;;;;;;;14.82;11.38;;;;;;;;;;4992807;28;20095;-67
2023/08/20 01:28:28;;;;;;;15.52;11.45;;;;;;;;;;5006070;28;20025;-68
2023/08/20 01:30:57;;;;;;;13.98;11.18;;;;;;;;;;5011124;28;20044;-66
2023/08/20 01:33:25;;;;;;;14.38;11.93;;;;;;;;;;5005404;28;20044;-68
2023/08/20 01:35:54;;;;;;;13.18;11.77;;;;;;;;;;5025412;28;20798;-67
2023/08/20 01:38:20;;;;;;;12.80;11.50;;;;;;;;;;5024575;28;20025;-68
2023/08/20 01:40:45;;;;;;;14.20;11.13;;;;;;;;;;5010507;28;20026;-68
2023/08/20 01:43:10;;;;;;;13.38;11.70;;;;;;;;;;5010283;28;20025;-68
2023/08/20 01:45:36;;;;;;;14.55;11.73;;;;;;;;;;5012983;28;20060;-68
2023/08/20 01:48:01;;;;;;;15.73;11.33;;;;;;;;;;5015816;28;20025;-68
2023/08/20 01:50:28;;;;;;;12.07;10.73;;;;;;;;;;5015182;28;20025;-67
2023/08/20 01:52:54;;;;;;;13.38;11.23;;;;;;;;;;5032745;28;20032;-67
2023/08/20 01:55:19;;;;;;;12.23;10.93;;;;;;;;;;5019256;28;20368;-67
2023/08/20 01:57:44;;;;;;;12.70;11.40;;;;;;;;;;5015560;28;20356;-67
2023/08/20 02:00:10;;;;;;;12.77;11.48;;;;;;;;;;5018086;28;20279;-69
2023/08/20 02:02:35;;;;;;;14.38;11.38;;;;;;;;;;5020164;28;20018;-67
2023/08/20 02:05:01;;;;;;;14.60;11.70;;;;;;;;;;5020761;28;20025;-67
2023/08/20 02:07:26;;;;;;;14.70;11.93;;;;;;;;;;5024532;28;20207;-67
2023/08/20 02:09:54;;;;;;;16.05;11.70;;;;;;;;;;5026914;28;20033;-68
2023/08/20 02:12:19;;;;;;;14.25;11.68;;;;;;;;;;5019250;28;20467;-67
2023/08/20 02:14:44;;;;;;;13.63;11.70;;;;;;;;;;5014212;28;20022;-67
2023/08/20 02:17:12;;;;;;;13.98;11.93;;;;;;;;;;5016792;28;20608;-67
2023/08/20 02:19:37;;;;;;;12.38;11.07;;;;;;;;;;5011238;28;20098;-66
2023/08/20 02:22:04;;;;;;;13.50;11.43;;;;;;;;;;5011730;28;20449;-68
2023/08/20 02:24:30;;;;;;;15.90;11.45;;;;;;;;;;5012263;28;20271;-68
2023/08/20 02:26:55;;;;;;;13.90;11.75;;;;;;;;;;5017844;28;20033;-67
2023/08/20 02:29:20;;;;;;;12.50;11.20;;;;;;;;;;5017723;28;20058;-67
2023/08/20 02:31:47;;;;;;;14.13;11.45;;;;;;;;;;5016486;28;20063;-68
2023/08/20 02:34:12;;;;;;;13.93;12.53;;;;;;;;;;5015459;28;20025;-68
2023/08/20 02:36:37;;;;;;;14.07;12.30;;;;;;;;;;5017309;28;20473;-68
2023/08/20 02:39:07;;;;;;;13.18;11.25;;;;;;;;;;5017510;28;21204;-69
2023/08/20 02:41:35;;;;;;;13.35;11.85;;;;;;;;;;5016470;28;20037;-68
2023/08/20 02:44:03;;;;;;;15.27;12.13;;;;;;;;;;5019128;28;20022;-68
2023/08/20 02:46:29;;;;;;;15.60;11.50;;;;;;;;;;5031731;28;20030;-66
2023/08/20 02:48:54;;;;;;;13.88;11.95;;;;;;;;;;5019532;28;21099;-68
2023/08/20 02:51:19;;;;;;;13.47;11.60;;;;;;;;;;5016899;28;20041;-66
2023/08/20 02:53:47;;;;;;;14.03;11.83;;;;;;;;;;5015970;28;20260;-66
2023/08/20 02:56:12;;;;;;;13.57;12.15;;;;;;;;;;5017169;28;21256;-67
2023/08/20 02:58:37;;;;;;;15.83;12.00;;;;;;;;;;5011044;28;20796;-67
2023/08/20 03:01:03;;;;;;;16.00;12.13;;;;;;;;;;5013618;28;20647;-67
2023/08/20 03:03:30;;;;;;;12.97;11.60;;;;;;;;;;5011850;28;20017;-67
2023/08/20 03:05:58;;;;;;;15.52;12.02;;;;;;;;;;5011168;28;20268;-66
2023/08/20 03:08:23;;;;;;;13.20;11.15;;;;;;;;;;5015207;28;20018;-69
2023/08/20 03:10:48;;;;;;;12.93;11.37;;;;;;;;;;5019845;28;20072;-66
2023/08/20 03:13:14;;;;;;;14.70;12.07;;;;;;;;;;5013250;28;20022;-67
2023/08/20 03:15:39;;;;;;;14.25;11.25;;;;;;;;;;5021207;28;20056;-67
2023/08/20 03:18:05;;;;;;;14.90;11.63;;;;;;;;;;5012102;28;20084;-67
2023/08/20 03:20:33;;;;;;;13.90;11.57;;;;;;;;;;5014226;28;20116;-68
2023/08/20 03:22:58;;;;;;;13.13;11.60;;;;;;;;;;5014901;28;20042;-67
2023/08/20 03:25:23;;;;;;;15.00;12.13;;;;;;;;;;5015048;28;20033;-68
2023/08/20 03:27:49;;;;;;;14.48;11.98;;;;;;;;;;5010950;28;20033;-66
2023/08/20 03:30:15;;;;;;;15.48;12.30;;;;;;;;;;5014243;28;20025;-68
2023/08/20 03:32:42;;;;;;;14.70;12.20;;;;;;;;;;5008373;28;20092;-67
2023/08/20 03:35:08;;;;;;;14.73;11.50;;;;;;;;;;5013736;28;20300;-67
2023/08/20 03:37:33;;;;;;;16.35;12.13;;;;;;;;;;5015032;28;20017;-68
2023/08/20 03:39:58;;;;;;;12.60;11.30;;;;;;;;;;5012028;28;20618;-68
2023/08/20 03:42:24;;;;;;;14.10;12.53;;;;;;;;;;5014761;28;21854;-68
2023/08/20 03:44:49;;;;;;;12.67;11.33;;;;;;;;;;5008418;28;20022;-68
2023/08/20 03:47:15;;;;;;;13.90;12.20;;;;;;;;;;5010799;28;20276;-67
2023/08/20 03:49:40;;;;;;;16.67;12.43;;;;;;;;;;5004940;28;20032;-67
2023/08/20 03:52:06;;;;;;;17.33;12.40;;;;;;;;;;5012693;28;20033;-68
2023/08/20 03:54:32;;;;;;;15.18;12.38;;;;;;;;;;5008271;28;21057;-67
2023/08/20 03:57:02;;;;;;;14.55;11.77;;;;;;;;;;5009177;28;20464;-67
2023/08/20 03:59:28;;;;;;;13.55;11.55;;;;;;;;;;5006455;28;20033;-66
2023/08/20 04:01:53;;;;;;;17.27;12.20;;;;;;;;;;5042629;28;20105;-67
2023/08/20 04:04:18;;;;;;;13.80;12.10;;;;;;;;;;5009021;28;20460;-66
2023/08/20 04:06:43;;;;;;;14.07;12.00;;;;;;;;;;5002351;28;21118;-68
2023/08/20 04:09:09;;;;;;;13.73;12.20;;;;;;;;;;5004212;28;20272;-68
2023/08/20 04:11:34;;;;;;;15.18;12.05;;;;;;;;;;5010930;28;20051;-67
2023/08/20 04:14:00;;;;;;;14.13;11.90;;;;;;;;;;5011377;28;20032;-67
2023/08/20 04:16:25;;;;;;;15.43;12.02;;;;;;;;;;5011318;28;20091;-66
2023/08/20 04:18:50;;;;;;;16.08;12.65;;;;;;;;;;5015880;28;20033;-67
2023/08/20 04:21:16;;;;;;;13.50;11.60;;;;;;;;;;5008600;28;20498;-67
2023/08/20 04:23:43;;;;;;;17.20;13.05;;;;;;;;;;5010330;28;20409;-66
2023/08/20 04:26:09;;;;;;;14.20;12.27;;;;;;;;;;5012930;28;20999;-68
2023/08/20 04:28:34;;;;;;;14.33;11.57;;;;;;;;;;5009961;28;20032;-67
2023/08/20 04:31:02;;;;;;;15.80;11.60;;;;;;;;;;5011133;28;20124;-67
2023/08/20 04:33:27;;;;;;;14.13;11.88;;;;;;;;;;5011540;28;20022;-68
2023/08/20 04:35:55;;;;;;;16.10;12.10;;;;;;;;;;5008909;28;20017;-67
2023/08/20 04:38:20;;;;;;;13.95;11.75;;;;;;;;;;5012276;28;20137;-66
2023/08/20 04:40:48;;;;;;;13.53;11.93;;;;;;;;;;5010961;28;20403;-66
2023/08/20 04:43:16;;;;;;;15.02;12.45;;;;;;;;;;5011135;28;20021;-69
2023/08/20 04:45:42;;;;;;;13.65;11.43;;;;;;;;;;5025818;28;20540;-68
2023/08/20 04:48:07;;;;;;;15.20;12.00;;;;;;;;;;5015243;28;20036;-68
2023/08/20 04:50:32;;;;;;;14.00;11.18;;;;;;;;;;5007644;28;20158;-69
2023/08/20 04:53:00;;;;;;;14.20;11.97;;;;;;;;;;5007425;28;20021;-67
2023/08/20 04:55:26;;;;;;;12.45;11.15;;;;;;;;;;5015008;28;20276;-68
2023/08/20 04:57:51;;;;;;;13.80;12.13;;;;;;;;;;5005710;28;21097;-68
2023/08/20 05:00:17;;;;;;;14.97;12.07;;;;;;;;;;5008100;28;20045;-68
2023/08/20 05:02:42;;;;;;;14.40;12.00;;;;;;;;;;5012159;28;20383;-67
2023/08/20 05:05:10;;;;;;;13.53;11.77;;;;;;;;;;5006708;28;20033;-69
2023/08/20 05:07:35;;;;;;;15.20;12.25;;;;;;;;;;5016157;28;20302;-69
2023/08/20 05:10:02;;;;;;;14.50;11.60;;;;;;;;;;5013466;28;20096;-68
2023/08/20 05:12:28;;;;;;;12.95;11.55;;;;;;;;;;5011720;28;20368;-68
2023/08/20 05:14:53;;;;;;;15.07;12.35;;;;;;;;;;5040127;28;20030;-67
2023/08/20 05:17:21;;;;;;;15.30;12.10;;;;;;;;;;5039227;28;21226;-67
2023/08/20 05:19:46;;;;;;;15.82;12.65;;;;;;;;;;5008309;28;21100;-68
2023/08/20 05:22:11;;;;;;;14.10;11.90;;;;;;;;;;5008505;28;20065;-64
2023/08/20 05:24:37;;;;;;;14.15;11.98;;;;;;;;;;5008911;28;20279;-67
2023/08/20 05:27:07;;;;;;;16.95;11.98;;;;;;;;;;5013408;28;20240;-67
2023/08/20 05:29:33;;;;;;;15.38;11.75;;;;;;;;;;5013634;28;20029;-66
2023/08/20 05:32:03;;;;;;;14.90;12.57;;;;;;;;;;5014022;28;20087;-67
2023/08/20 05:34:28;;;;;;;13.27;11.88;;;;;;;;;;5007073;28;20059;-68
2023/08/20 05:36:53;;;;;;;12.73;11.40;;;;;;;;;;5007489;28;20026;-67
2023/08/20 05:39:19;;;;;;;15.47;12.00;;;;;;;;;;5010923;28;20026;-68
2023/08/20 05:41:44;;;;;;;12.87;11.47;;;;;;;;;;5016752;28;20472;-67
2023/08/20 05:44:09;;;;;;;14.30;11.97;;;;;;;;;;5012409;28;20303;-67
2023/08/20 05:46:37;;;;;;;16.52;11.85;;;;;;;;;;5010113;28;20025;-67
2023/08/20 05:49:05;;;;;;;14.25;12.15;;;;;;;;;;5018897;28;20044;-68
2023/08/20 05:51:30;;;;;;;14.40;11.60;;;;;;;;;;5016325;28;20037;-70
2023/08/20 05:53:57;;;;;;;14.90;11.90;;;;;;;;;;5016835;28;20025;-69
2023/08/20 05:56:23;;;;;;;14.75;11.82;;;;;;;;;;5015452;28;20014;-68
2023/08/20 05:58:51;;;;;;;12.77;11.37;;;;;;;;;;5013403;28;20439;-67
2023/08/20 06:01:18;;;;;;;15.88;11.95;;;;;;;;;;5014021;28;20304;-68
2023/08/20 06:03:43;;;;;;;14.15;11.68;;;;;;;;;;5024889;28;20490;-68
2023/08/20 06:06:11;;;;;;;14.23;11.73;;;;;;;;;;5015310;28;20025;-65
2023/08/20 06:08:36;;;;;;;14.35;12.15;;;;;;;;;;5011818;28;20021;-68
2023/08/20 06:11:01;;;;;;;13.90;11.37;;;;;;;;;;5013467;28;20025;-67
2023/08/20 06:13:27;;;;;;;21.35;12.05;;;;;;;;;;5013040;28;20095;-67
2023/08/20 06:15:52;;;;;;;13.33;11.90;;;;;;;;;;5008117;28;20029;-68
2023/08/20 06:18:17;;;;;;;15.37;11.57;;;;;;;;;;5015193;28;20036;-70
2023/08/20 06:20:42;;;;;;;16.63;11.73;;;;;;;;;;5008681;28;20717;-67
2023/08/20 06:23:08;;;;;;;14.57;11.83;;;;;;;;;;5009147;28;20682;-66
2023/08/20 06:25:36;;;;;;;16.13;11.73;;;;;;;;;;5015816;28;20112;-67
2023/08/20 06:28:01;;;;;;;14.88;11.68;;;;;;;;;;5015845;28;20316;-66
2023/08/20 06:30:27;;;;;;;15.70;12.40;;;;;;;;;;5019785;28;20156;-66
2023/08/20 06:32:54;;;;;;;14.00;11.83;;;;;;;;;;5013849;28;20021;-66
2023/08/20 06:35:24;;;;;;;13.35;11.63;;;;;;;;;;5017133;28;20099;-66
2023/08/20 06:37:49;;;;;;;14.90;11.27;;;;;;;;;;5013909;28;20079;-66
2023/08/20 06:40:14;;;;;;;13.37;11.47;;;;;;;;;;5015685;28;20041;-67
2023/08/20 06:42:42;;;;;;;13.47;11.93;;;;;;;;;;5012567;28;20033;-68
2023/08/20 06:45:10;;;;;;;15.57;11.45;;;;;;;;;;5019436;28;20266;-66
2023/08/20 06:47:35;;;;;;;13.15;11.65;;;;;;;;;;5016272;28;20036;-67
2023/08/20 06:50:03;;;;;;;14.37;12.17;;;;;;;;;;5018318;28;20034;-67
2023/08/20 06:52:28;;;;;;;15.93;12.90;;;;;;;;;;5015634;28;20025;-67
2023/08/20 06:54:53;;;;;;;14.23;12.73;;;;;;;;;;5018404;28;20013;-68
2023/08/20 06:57:18;;;;;;;13.50;11.83;;;;;;;;;;5018190;28;20049;-67
2023/08/20 06:59:44;;;;;;;14.53;12.53;;;;;;;;;;5015274;28;21124;-66
2023/08/20 07:02:10;;;;;;;16.50;12.77;;;;;;;;;;5018182;28;20017;-66
2023/08/20 07:04:35;;;;;;;14.45;12.50;;;;;;;;;;5015442;28;20597;-68
2023/08/20 07:07:00;;;;;;;16.43;11.93;;;;;;;;;;5013306;28;20033;-64
2023/08/20 07:09:25;;;;;;;14.48;12.25;;;;;;;;;;5014142;28;20033;-67
2023/08/20 07:11:51;;;;;;;13.80;11.67;;;;;;;;;;5013315;28;20022;-66
2023/08/20 07:14:16;;;;;;;14.63;12.13;;;;;;;;;;5042710;28;20132;-67
2023/08/20 07:16:41;;;;;;;16.00;13.18;;;;;;;;;;5013227;28;20658;-67
2023/08/20 07:19:06;;;;;;;14.48;11.85;;;;;;;;;;5019437;28;20737;-66
2023/08/20 07:21:32;;;;;;;15.07;11.90;;;;;;;;;;5016619;28;21250;-66
2023/08/20 07:23:57;;;;;;;14.17;12.20;;;;;;;;;;5018021;28;20129;-67
2023/08/20 07:26:23;;;;;;;14.07;12.52;;;;;;;;;;5009037;28;20029;-68
2023/08/20 07:28:57;;;;;;;14.02;11.10;;;;;;;;;;5007689;28;20024;-69
2023/08/20 07:31:29;;;;;;;14.35;12.48;;;;;;;;;;5015824;28;20029;-69
2023/08/20 07:33:55;;;;;;;17.13;12.30;;;;;;;;;;5010455;28;20060;-68
2023/08/20 07:36:26;;;;;;;13.20;11.85;;;;;;;;;;5018872;28;20017;-67
2023/08/20 07:38:55;;;;;;;14.55;11.52;;;;;;;;;;5011618;28;20029;-67
2023/08/20 07:41:21;;;;;;;14.63;12.65;;;;;;;;;;5016228;28;20033;-67
2023/08/20 07:43:47;;;;;;;15.07;11.77;;;;;;;;;;5046027;28;20032;-68
2023/08/20 07:46:12;;;;;;;14.27;11.45;;;;;;;;;;5015340;28;20025;-67
2023/08/20 07:48:40;;;;;;;15.10;11.63;;;;;;;;;;5014829;28;20053;-69
2023/08/20 07:51:08;;;;;;;13.55;12.15;;;;;;;;;;5017898;28;20022;-68
2023/08/20 07:53:36;;;;;;;14.80;11.65;;;;;;;;;;5017555;28;20021;-67
2023/08/20 07:56:01;;;;;;;13.63;12.13;;;;;;;;;;5018415;28;20040;-68
2023/08/20 07:58:29;;;;;;;14.30;11.60;;;;;;;;;;5014958;28;20021;-68
2023/08/20 08:00:55;;;;;;;16.65;11.75;;;;;;;;;;5011771;28;20283;-67
2023/08/20 08:03:20;;;;;;;16.20;12.38;;;;;;;;;;5014137;28;20025;-69
2023/08/20 08:05:53;;;;;;;14.43;11.47;;;;;;;;;;5011659;28;20028;-67
2023/08/20 08:08:19;;;;;;;14.75;11.25;;;;;;;;;;5018540;28;20021;-69
2023/08/20 08:10:45;;;;;;;14.93;13.25;;;;;;;;;;5010976;28;20029;-67
2023/08/20 08:13:12;;;;;;;13.10;11.63;;;;;;;;;;5011890;28;20028;-68
2023/08/20 08:15:37;;;;;;;14.25;12.25;;;;;;;;;;5006572;28;20013;-68
2023/08/20 08:18:03;;;;;;;12.85;11.15;;;;;;;;;;5014455;28;20864;-66
2023/08/20 08:20:28;;;;;;;14.57;11.57;;;;;;;;;;5018565;28;20236;-69
2023/08/20 08:22:56;;;;;;;17.50;13.02;;;;;;;;;;5008444;28;20068;-68
2023/08/20 08:25:21;;;;;;;13.57;11.57;;;;;;;;;;5006069;28;20044;-65
2023/08/20 08:27:47;;;;;;;14.57;10.60;;;;;;;;;;5039173;28;20032;-65
2023/08/20 08:30:12;;;;;;;13.88;11.27;;;;;;;;;;5014623;28;20021;-65
2023/08/20 08:32:40;;;;;;;12.85;10.65;;;;;;;;;;5028771;28;20040;-68
2023/08/20 08:35:05;;;;;;;12.00;10.73;;;;;;;;;;5015038;28;20944;-68
2023/08/20 08:37:31;;;;;;;12.50;10.32;;;;;;;;;;5010881;28;20464;-69
2023/08/20 08:39:56;;;;;;;13.97;10.27;;;;;;;;;;5012419;28;20086;-67
2023/08/20 08:42:22;;;;;;;11.67;9.23;;;;;;;;;;5011355;28;20040;-66
2023/08/20 08:44:48;;;;;;;11.70;9.88;;;;;;;;;;5008633;28;20354;-67
2023/08/20 08:47:13;;;;;;;13.00;8.98;;;;;;;;;;5012639;28;20481;-67
2023/08/20 08:49:43;;;;;;;11.20;9.05;;;;;;;;;;5010796;28;20024;-68
2023/08/20 08:52:10;;;;;;;10.00;8.95;;;;;;;;;;5017517;28;20089;-68
2023/08/20 08:54:35;;;;;;;10.85;9.55;;;;;;;;;;5015655;28;20052;-68
2023/08/20 08:57:01;;;;;;;14.10;9.45;;;;;;;;;;5013993;28;20099;-68
2023/08/20 08:59:28;;;;;;;11.67;9.37;;;;;;;;;;5016103;28;21223;-68
2023/08/20 09:01:56;;;;;;;14.30;10.05;;;;;;;;;;5013773;28;20268;-67
2023/08/20 09:04:21;;;;;;;12.02;10.20;;;;;;;;;;5010339;28;20104;-69
2023/08/20 09:06:51;;;;;;;13.63;10.40;;;;;;;;;;5013273;28;20036;-68
2023/08/20 09:09:17;;;;;;;12.77;9.65;;;;;;;;;;5029314;28;20139;-67
2023/08/20 09:11:42;;;;;;;13.68;9.90;;;;;;;;;;5014734;28;20728;-66
2023/08/20 09:14:10;;;;;;;12.90;9.95;;;;;;;;;;5025840;28;20878;-67
2023/08/20 09:16:35;;;;;;;13.10;9.75;;;;;;;;;;5016574;28;20022;-68
2023/08/20 09:19:01;;;;;;;14.73;9.93;;;;;;;;;;5009680;28;20033;-67
2023/08/20 09:21:29;;;;;;;13.50;10.27;;;;;;;;;;5011005;28;20331;-67
2023/08/20 09:23:54;;;;;;;13.60;10.30;;;;;;;;;;5017660;28;20017;-68
2023/08/20 09:26:19;;;;;;;14.40;10.43;;;;;;;;;;5021658;28;20026;-67
2023/08/20 09:28:46;;;;;;;12.63;10.00;;;;;;;;;;5018609;28;20804;-69
2023/08/20 09:31:14;;;;;;;13.75;10.23;;;;;;;;;;5039325;28;20026;-69
2023/08/20 09:33:55;;;;;;;12.57;10.80;;;;;;;;;;5021104;28;20023;-66
2023/08/20 09:36:31;;;;;;;12.60;11.10;;;;;;;;;;5011180;28;20163;-68
2023/08/20 09:38:59;;;;;;;14.43;11.27;;;;;;;;;;5014617;28;20202;-67
2023/08/20 09:41:25;;;;;;;15.90;10.98;;;;;;;;;;5013858;28;20025;-68
2023/08/20 09:43:55;;;;;;;12.23;10.65;;;;;;;;;;5015217;28;20709;-68
2023/08/20 09:46:23;;;;;;;15.05;10.43;;;;;;;;;;5010161;28;20025;-67
2023/08/20 09:48:50;;;;;;;15.40;11.15;;;;;;;;;;5015303;28;20013;-68
2023/08/20 09:51:18;;;;;;;12.02;10.75;;;;;;;;;;5013792;28;20030;-68
2023/08/20 09:53:44;;;;;;;13.90;10.55;;;;;;;;;;5017751;28;20017;-67
2023/08/20 09:56:10;;;;;;;12.03;10.57;;;;;;;;;;5018634;28;20040;-67
2023/08/20 09:58:40;;;;;;;13.57;10.70;;;;;;;;;;5015812;28;20014;-68
2023/08/20 10:01:06;;;;;;;12.70;10.27;;;;;;;;;;5014291;28;20025;-68
2023/08/20 10:03:32;;;;;;;12.60;10.18;;;;;;;;;;5004645;28;20034;-69
2023/08/20 10:05:58;;;;;;;14.27;10.40;;;;;;;;;;5019874;28;20043;-67
2023/08/20 10:08:24;;;;;;;14.90;11.15;;;;;;;;;;5020623;28;20513;-69
2023/08/20 10:10:49;;;;;;;13.00;10.48;;;;;;;;;;5019080;28;20033;-66
2023/08/20 10:13:15;;;;;;;12.60;10.57;;;;;;;;;;5017141;28;20109;-67
2023/08/20 10:15:43;;;;;;;14.30;10.07;;;;;;;;;;5019673;28;20017;-67
2023/08/20 10:18:08;;;;;;;17.33;11.13;;;;;;;;;;5012593;28;20025;-66
2023/08/20 10:20:34;;;;;;;12.73;11.25;;;;;;;;;;5016208;28;20025;-67
2023/08/20 10:23:03;;;;;;;15.27;11.30;;;;;;;;;;5014548;28;20045;-67
2023/08/20 10:25:29;;;;;;;13.88;10.75;;;;;;;;;;5012134;28;21772;-67
2023/08/20 10:27:54;;;;;;;13.00;11.57;;;;;;;;;;5015334;28;20474;-65
2023/08/20 10:30:25;;;;;;;15.35;10.73;;;;;;;;;;5018565;28;20025;-68
2023/08/20 10:32:50;;;;;;;13.25;11.85;;;;;;;;;;5014549;28;20040;-67
2023/08/20 10:35:17;;;;;;;13.60;10.60;;;;;;;;;;5023810;28;20025;-64
2023/08/20 10:38:00;;;;;;;12.52;10.65;;;;;;;;;;5014674;28;20336;-68
2023/08/20 10:40:45;;;;;;;13.98;10.52;;;;;;;;;;5011898;28;20439;-66
2023/08/20 10:43:10;;;;;;;12.23;10.70;;;;;;;;;;5012441;28;20051;-70
2023/08/20 10:45:43;;;;;;;12.07;10.37;;;;;;;;;;5014679;28;20473;-66
2023/08/20 10:48:08;;;;;;;17.33;10.60;;;;;;;;;;5012903;28;20076;-67
2023/08/20 10:50:36;;;;;;;13.50;10.60;;;;;;;;;;5017652;28;20426;-67
2023/08/20 10:53:03;;;;;;;12.32;10.35;;;;;;;;;;5008467;28;20620;-67
2023/08/20 10:55:30;;;;;;;14.18;11.15;;;;;;;;;;5006103;28;20029;-65
2023/08/20 10:57:56;;;;;;;12.93;10.65;;;;;;;;;;5011364;28;20082;-67
2023/08/20 11:00:24;;;;;;;14.90;10.48;;;;;;;;;;5012984;28;20868;-66
2023/08/20 11:02:50;;;;;;;13.15;10.82;;;;;;;;;;5014289;28;20022;-67
2023/08/20 11:05:16;;;;;;;13.88;11.50;;;;;;;;;;5012809;28;20024;-67
2023/08/20 11:07:45;;;;;;;16.13;11.88;;;;;;;;;;5030467;28;20082;-67
2023/08/20 11:10:12;;;;;;;13.02;11.43;;;;;;;;;;5021838;28;20025;-67
2023/08/20 11:12:38;;;;;;;12.85;10.50;;;;;;;;;;5018552;28;20025;-67
2023/08/20 11:15:03;;;;;;;12.37;9.63;;;;;;;;;;5012504;28;20029;-67
2023/08/20 11:17:28;;;;;;;12.73;9.95;;;;;;;;;;5012432;28;20032;-66
2023/08/20 11:19:54;;;;;;;10.87;9.17;;;;;;;;;;5012313;28;20767;-66
2023/08/20 11:22:19;;;;;;;12.38;9.70;;;;;;;;;;5013298;28;20076;-66
2023/08/20 11:24:44;;;;;;;11.90;9.50;;;;;;;;;;5015321;28;20021;-68
2023/08/20 11:27:12;;;;;;;13.37;9.13;;;;;;;;;;5020369;28;20105;-66
2023/08/20 11:29:41;;;;;;;13.70;9.95;;;;;;;;;;5015252;28;20259;-65
2023/08/20 11:32:07;;;;;;;13.38;9.52;;;;;;;;;;5016776;28;20025;-67
2023/08/20 11:34:33;;;;;;;12.55;9.35;;;;;;;;;;5015047;28;20021;-66
2023/08/20 11:37:01;;;;;;;13.15;9.35;;;;;;;;;;5014676;28;20029;-66
2023/08/20 11:39:26;;;;;;;13.43;9.68;;;;;;;;;;5034505;28;20521;-66
2023/08/20 11:41:54;;;;;;;12.90;9.17;;;;;;;;;;5019326;28;20032;-67
2023/08/20 11:44:21;;;;;;;14.13;8.82;;;;;;;;;;5009953;28;20021;-67
2023/08/20 11:46:49;;;;;;;12.23;8.75;;;;;;;;;;5040685;28;20131;-67
2023/08/20 11:49:14;;;;;;;11.70;9.40;;;;;;;;;;5028989;28;20021;-67
2023/08/20 11:51:52;;;;;;;15.13;9.93;;;;;;;;;;5013013;28;20245;-63
2023/08/20 11:54:20;;;;;;;11.70;9.07;;;;;;;;;;5011768;28;20024;-67
2023/08/20 11:56:49;;;;;;;11.53;8.73;;;;;;;;;;5008928;28;20017;-66
2023/08/20 11:59:15;;;;;;;12.90;9.00;;;;;;;;;;5009649;28;20555;-66
2023/08/20 12:01:40;;;;;;;12.25;9.27;;;;;;;;;;5013854;28;20030;-67
2023/08/20 12:04:07;;;;;;;12.67;9.07;;;;;;;;;;5012846;28;20029;-67
2023/08/20 12:06:34;;;;;;;11.13;8.80;;;;;;;;;;5012741;28;20271;-67
2023/08/20 12:09:00;;;;;;;10.15;8.88;;;;;;;;;;5013393;28;20104;-67
2023/08/20 12:11:28;;;;;;;10.63;8.45;;;;;;;;;;5007510;28;20021;-67
2023/08/20 12:13:54;;;;;;;11.63;9.25;;;;;;;;;;5011687;28;20033;-65
2023/08/20 12:16:21;;;;;;;12.70;9.45;;;;;;;;;;5010730;28;20602;-67
2023/08/20 12:18:49;;;;;;;11.13;8.75;;;;;;;;;;5013119;28;20321;-67
2023/08/20 12:21:14;;;;;;;10.45;8.70;;;;;;;;;;5012902;28;20196;-67
2023/08/20 12:23:42;;;;;;;13.27;9.68;;;;;;;;;;5033618;28;20025;-67
2023/08/20 12:26:11;;;;;;;12.00;9.38;;;;;;;;;;5012636;28;21125;-66
2023/08/20 12:28:36;;;;;;;;;;;;;;;;;;5018536;28;20056;-65
2023/08/20 12:31:04;;;;;;;10.23;8.90;;;;;;;;;;5012197;28;19967;-66
2023/08/20 12:33:32;;;;;;;11.40;8.80;;;;;;;;;;5016458;28;20807;-67
2023/08/20 12:35:59;;;;;;;13.23;9.27;;;;;;;;;;5010819;28;20032;-64
2023/08/20 12:38:27;;;;;;;10.75;9.07;;;;;;;;;;5006987;28;20099;-66
2023/08/20 12:40:54;;;;;;;14.27;10.05;;;;;;;;;;5009871;28;20033;-65
2023/08/20 12:43:20;;;;;;;12.18;9.18;;;;;;;;;;5007520;28;20464;-66
2023/08/20 12:45:45;;;;;;;14.43;9.70;;;;;;;;;;5012319;28;20021;-66
2023/08/20 12:48:10;;;;;;;11.57;9.50;;;;;;;;;;5016067;28;20083;-68
2023/08/20 12:50:36;;;;;;;12.23;9.17;;;;;;;;;;5017168;28;20670;-68
2023/08/20 12:53:01;;;;;;;11.90;9.03;;;;;;;;;;5016364;28;20253;-66
2023/08/20 12:55:27;;;;;;;11.70;8.85;;;;;;;;;;5012057;28;20017;-67
2023/08/20 12:57:56;;;;;;;12.93;9.02;;;;;;;;;;5011675;28;20724;-66
2023/08/20 13:00:22;;;;;;;12.98;8.77;;;;;;;;;;5021945;28;20111;-67
2023/08/20 13:02:47;;;;;;;10.95;9.30;;;;;;;;;;5006322;28;20133;-65
2023/08/20 13:05:13;;;;;;;11.45;8.93;;;;;;;;;;5011446;28;20014;-66
2023/08/20 13:07:39;;;;;;;12.07;9.30;;;;;;;;;;5011914;28;20021;-68
2023/08/20 13:10:08;;;;;;;11.98;9.00;;;;;;;;;;5011187;28;20017;-67
2023/08/20 13:12:34;;;;;;;10.85;8.45;;;;;;;;;;5011842;28;20045;-66
2023/08/20 13:14:59;;;;;;;9.85;8.70;;;;;;;;;;5009719;28;20167;-67
2023/08/20 13:17:25;;;;;;;10.10;8.52;;;;;;;;;;5008650;28;20017;-66
2023/08/20 13:19:50;;;;;;;11.63;8.80;;;;;;;;;;5009380;28;20832;-68
2023/08/20 13:22:18;;;;;;;10.67;8.83;;;;;;;;;;5011595;28;20049;-68
2023/08/20 13:24:43;;;;;;;10.50;8.90;;;;;;;;;;5009099;28;20472;-68
2023/08/20 13:27:08;;;;;;;10.77;8.77;;;;;;;;;;5014433;28;20031;-66
2023/08/20 13:29:34;;;;;;;11.93;9.10;;;;;;;;;;5012310;28;20060;-68
2023/08/20 13:32:00;;;;;;;10.43;8.97;;;;;;;;;;5003500;28;20048;-65
2023/08/20 13:34:25;;;;;;;12.20;8.88;;;;;;;;;;5011151;28;20763;-64
2023/08/20 13:36:50;;;;;;;13.30;9.00;;;;;;;;;;5007877;28;20151;-69
2023/08/20 13:39:18;;;;;;;12.00;9.23;;;;;;;;;;5009071;28;20022;-69
2023/08/20 13:41:46;;;;;;;10.32;8.25;;;;;;;;;;5009097;28;20031;-68
2023/08/20 13:44:13;;;;;;;12.40;9.10;;;;;;;;;;5013081;28;20018;-69
2023/08/20 13:46:39;;;;;;;10.07;9.00;;;;;;;;;;5009758;28;20018;-69
2023/08/20 13:49:06;;;;;;;12.93;9.13;;;;;;;;;;5005303;28;20037;-68
2023/08/20 13:51:31;;;;;;;10.63;8.65;;;;;;;;;;5010375;28;20026;-67
2023/08/20 13:53:57;;;;;;;10.87;9.37;;;;;;;;;;5015768;28;20025;-68
2023/08/20 13:56:24;;;;;;;13.40;9.10;;;;;;;;;;5010898;28;20026;-67
2023/08/20 13:58:49;;;;;;;11.38;9.02;;;;;;;;;;5016139;28;20034;-67
2023/08/20 14:01:14;;;;;;;13.00;9.03;;;;;;;;;;5013396;28;20041;-68
2023/08/20 14:03:39;;;;;;;12.60;8.90;;;;;;;;;;5014122;28;20304;-65
2023/08/20 14:06:07;;;;;;;11.27;8.73;;;;;;;;;;5005699;28;20030;-68
2023/08/20 14:08:35;;;;;;;10.80;8.82;;;;;;;;;;5009275;28;20463;-68
2023/08/20 14:11:03;;;;;;;11.05;9.02;;;;;;;;;;5015975;28;20664;-67
2023/08/20 14:13:30;;;;;;;10.43;9.00;;;;;;;;;;5009932;28;20113;-66
2023/08/20 14:15:56;;;;;;;12.70;8.33;;;;;;;;;;5014687;28;20061;-67
2023/08/20 14:18:24;;;;;;;11.00;9.13;;;;;;;;;;5008733;28;20096;-67